Portada
METAR-TAF:

METAR-TAF

Aeroports :

Nouméa La Tontouta, Nova Caledònia

latitud: 22-01S, longitud: 166-13E, altitud: 16 m

Observació

L'informe es va fer fa 37 minuts, a les 12:00 UTC
Vent 4 kt del Nord-Est, variant entre Nord i Est
Temperatura 19°C
Humitat 64%
Pressió 1018 hPa
Visibilitat 10 km o més
sense núvols per sota de 1500 mi sense presència de cumulonimbus.

METAR: NWWW 171200Z AUTO 05004KT 010V100 CAVOK 19/12 Q1018 NOSIG

Hora: 23:37 (12:37 UTC)

Pronòstic

L'informe es va fer fa 1 hora i 37 minuts, a les 11:00 UTC
Pronòstic vàlid del 17 a les 12 UTC al 18 a les 12 UTC
Vent 2 kt amb direcció variable
Visibilitat 10 km o més
Núvols disperses a una alçada de 4500 ft
Evolucionant progressivament
l' 18 a les 00 UTC al 18 a les 02 UTC
Vent 10 kt del Sud/Sud-Est
Evolucionant progressivament
l' 18 a les 06 UTC al 18 a les 08 UTC
Vent 2 kt amb direcció variable

TAF: NWWW 171100Z 1712/1812 VRB02KT 9999 SCT045 BECMG 1800/1802 16010KT BECMG 1806/1808 VRB02KT

Observacions i pronòstics meteorològics de més de 4000 aeroports (METAR i TAF).

Les estacions disponibles són els punts grocs i vermells al mapa.

Posi el ratolí al punt desitjat per veure el nom de l'estació.

Feu clic per veure les observacions i els pronòstics meteorològics.

Per canviar el mapa: feu clic els botons verds amb una creu de color negre per apropar; al botó verd amb un guió per allunyar la imatge; o en les fletxes verdes per a mapes adjacents.


METAR-TAF: